Time;durP1;ratioP1;P1;durP2;ratioP2;P2;SDS_P1;SDS_P2;PMS_P1;PMS_P2;Temp;Humidity;BMP_temperature;BMP_pressure;BME280_temperature;BME280_humidity;BME280_pressure;Samples;Min_cycle;Max_cycle;Signal;HPM_P1;HPM_P2
2023/05/06 00:00:16;;;;;;;12.50;9.40;;;;;;;11.79;100.00;100739.25;6259861;28;20048;-94
2023/05/06 00:03:18;;;;;;;15.30;11.48;;;;;;;11.84;100.00;100732.72;6259730;28;20041;-93
2023/05/06 00:06:20;;;;;;;16.83;11.88;;;;;;;11.81;100.00;100725.19;6251356;28;20033;-94
2023/05/06 00:09:23;;;;;;;17.17;11.80;;;;;;;11.85;100.00;100738.75;6251766;28;20040;-93
2023/05/06 00:12:25;;;;;;;17.85;12.35;;;;;;;11.87;100.00;100736.06;6261103;28;20044;-93
2023/05/06 00:15:26;;;;;;;18.10;13.00;;;;;;;11.82;100.00;100721.66;6257432;28;20057;-93
2023/05/06 00:18:31;;;;;;;19.55;12.88;;;;;;;11.83;100.00;100717.31;6260587;28;20040;-93
2023/05/06 00:21:33;;;;;;;19.27;12.73;;;;;;;11.82;100.00;100723.41;6256652;28;20032;-92
2023/05/06 00:24:35;;;;;;;18.45;12.95;;;;;;;11.83;100.00;100714.72;6248965;28;20052;-92
2023/05/06 00:27:37;;;;;;;18.58;12.68;;;;;;;11.85;100.00;100721.41;6258322;28;20048;-92
2023/05/06 00:30:39;;;;;;;18.25;12.80;;;;;;;11.86;100.00;100722.25;6249378;28;20042;-92
2023/05/06 00:33:41;;;;;;;19.00;13.55;;;;;;;11.81;100.00;100722.59;6255456;28;20037;-92
2023/05/06 00:36:43;;;;;;;19.58;13.43;;;;;;;11.82;100.00;100726.84;6259740;28;20041;-92
2023/05/06 00:39:45;;;;;;;19.30;13.77;;;;;;;11.80;100.00;100726.16;6255884;28;20499;-93
2023/05/06 00:42:46;;;;;;;20.17;13.45;;;;;;;11.77;100.00;100725.56;6258752;28;20049;-93
2023/05/06 00:45:50;;;;;;;19.63;14.25;;;;;;;11.73;100.00;100735.38;6252420;28;20087;-93
2023/05/06 00:48:52;;;;;;;22.08;14.07;;;;;;;11.74;100.00;100737.00;6248683;28;20195;-92
2023/05/06 00:51:55;;;;;;;20.92;14.25;;;;;;;11.84;100.00;100734.50;6223268;28;20045;-92
2023/05/06 00:54:57;;;;;;;20.58;13.98;;;;;;;11.82;100.00;100741.56;6264921;28;20036;-91
2023/05/06 00:57:59;;;;;;;20.20;14.45;;;;;;;11.79;100.00;100737.47;6260022;28;20036;-91
2023/05/06 01:01:02;;;;;;;20.35;14.82;;;;;;;11.77;100.00;100734.16;6263948;28;20558;-92
2023/05/06 01:04:03;;;;;;;21.45;14.35;;;;;;;11.75;100.00;100735.22;6247931;28;20061;-91
2023/05/06 01:07:42;;;;;;;22.40;14.05;;;;;;;11.73;100.00;100732.78;6247740;28;20041;-92
2023/05/06 01:10:56;;;;;;;20.38;13.63;;;;;;;11.77;100.00;100731.56;6254593;28;20048;-92
2023/05/06 01:14:06;;;;;;;19.00;13.25;;;;;;;11.71;100.00;100734.66;6264166;28;20507;-92
2023/05/06 01:17:11;;;;;;;21.08;13.93;;;;;;;11.74;100.00;100731.00;6248086;28;20117;-91
2023/05/06 01:20:17;;;;;;;20.98;13.68;;;;;;;11.70;100.00;100735.63;6264796;28;20041;-92
2023/05/06 01:23:19;;;;;;;18.80;13.68;;;;;;;11.55;100.00;100734.25;6252820;28;20489;-92
2023/05/06 01:26:21;;;;;;;20.50;13.02;;;;;;;11.44;100.00;100732.50;6267787;28;20052;-92
2023/05/06 01:29:23;;;;;;;19.20;12.57;;;;;;;11.28;100.00;100725.13;6263802;28;20431;-92
2023/05/06 01:32:57;;;;;;;17.92;12.13;;;;;;;11.16;100.00;100726.91;6252038;28;20474;-91
2023/05/06 01:36:07;;;;;;;19.80;12.85;;;;;;;11.10;100.00;100732.56;6280509;28;20071;-91
2023/05/06 01:39:27;;;;;;;19.95;13.00;;;;;;;10.90;100.00;100731.50;6256609;28;20040;-92
2023/05/06 01:42:31;;;;;;;18.23;12.32;;;;;;;10.82;100.00;100739.06;6260263;28;20786;-92
2023/05/06 01:45:35;;;;;;;14.73;10.43;;;;;;;10.86;100.00;100745.66;6264041;28;20033;-91
2023/05/06 01:48:38;;;;;;;14.43;10.65;;;;;;;10.87;100.00;100739.53;6263746;28;20056;-91
2023/05/06 01:51:46;;;;;;;15.77;10.50;;;;;;;10.92;100.00;100741.75;6243458;28;20511;-91
2023/05/06 01:54:48;;;;;;;15.88;10.35;;;;;;;10.98;100.00;100747.31;6262030;28;20145;-92
2023/05/06 01:57:50;;;;;;;15.57;10.93;;;;;;;11.03;100.00;100740.94;6264948;28;20124;-92
2023/05/06 02:00:52;;;;;;;17.85;11.50;;;;;;;11.10;100.00;100739.50;6264587;28;20056;-91
2023/05/06 02:03:54;;;;;;;16.98;11.10;;;;;;;11.17;100.00;100738.09;6261710;28;20036;-91
2023/05/06 02:06:57;;;;;;;15.25;10.75;;;;;;;11.17;100.00;100740.69;6262721;28;20102;-91
2023/05/06 02:09:59;;;;;;;14.98;10.25;;;;;;;11.14;100.00;100725.38;6260903;28;20215;-91
2023/05/06 02:13:01;;;;;;;14.63;9.60;;;;;;;11.19;100.00;100729.25;6261402;28;20404;-91
2023/05/06 02:16:03;;;;;;;13.63;9.52;;;;;;;11.17;100.00;100725.13;6246726;28;20060;-91
2023/05/06 02:19:06;;;;;;;12.40;8.90;;;;;;;11.13;100.00;100713.34;6262932;28;20053;-91
2023/05/06 02:22:08;;;;;;;13.02;9.23;;;;;;;11.05;100.00;100713.16;6262968;28;20841;-91
2023/05/06 02:25:09;;;;;;;13.32;8.68;;;;;;;10.90;100.00;100713.38;6261582;28;20143;-91
2023/05/06 02:28:12;;;;;;;12.95;8.63;;;;;;;10.77;100.00;100716.09;6262540;28;20051;-92
2023/05/06 02:31:14;;;;;;;11.57;8.68;;;;;;;10.65;100.00;100713.63;6262311;28;20119;-91
2023/05/06 02:34:16;;;;;;;12.88;8.77;;;;;;;10.54;100.00;100720.44;6263576;28;20048;-91
2023/05/06 02:37:18;;;;;;;12.73;9.07;;;;;;;10.44;100.00;100723.84;6261927;28;20049;-91
2023/05/06 02:40:20;;;;;;;15.55;9.05;;;;;;;10.40;100.00;100727.59;6252825;28;20043;-91
2023/05/06 02:43:22;;;;;;;10.85;8.13;;;;;;;10.27;100.00;100722.50;6245558;28;20060;-91
2023/05/06 02:46:23;;;;;;;13.48;7.63;;;;;;;10.25;100.00;100727.78;6265621;28;20045;-91
2023/05/06 02:49:25;;;;;;;11.00;6.82;;;;;;;10.25;100.00;100719.19;6262136;28;20049;-91
2023/05/06 02:52:27;;;;;;;9.32;6.85;;;;;;;10.24;100.00;100720.97;6262502;28;20045;-91
2023/05/06 02:55:29;;;;;;;11.23;7.20;;;;;;;10.23;100.00;100716.72;6262420;28;20048;-91
2023/05/06 02:58:31;;;;;;;10.35;7.25;;;;;;;10.14;100.00;100717.41;6261483;28;20051;-91
2023/05/06 03:01:33;;;;;;;10.20;7.50;;;;;;;10.09;100.00;100717.75;6261045;28;20037;-91
2023/05/06 03:04:35;;;;;;;11.02;7.45;;;;;;;9.99;100.00;100721.94;6236427;28;20136;-91
2023/05/06 03:07:37;;;;;;;10.95;6.97;;;;;;;9.96;100.00;100721.34;6261118;28;20491;-90
2023/05/06 03:10:40;;;;;;;11.23;6.78;;;;;;;9.89;100.00;100710.63;6262040;28;20102;-91
2023/05/06 03:13:42;;;;;;;8.35;6.53;;;;;;;9.86;100.00;100713.41;6259449;28;20049;-91
2023/05/06 03:16:44;;;;;;;8.60;6.43;;;;;;;9.86;100.00;100710.84;6261794;28;20037;-90
2023/05/06 03:19:49;;;;;;;8.75;6.30;;;;;;;9.83;100.00;100708.47;6258218;28;20047;-91
2023/05/06 03:22:52;;;;;;;7.72;5.93;;;;;;;9.84;100.00;100712.72;6261386;28;20499;-90
2023/05/06 03:25:55;;;;;;;11.18;5.97;;;;;;;9.86;100.00;100711.69;6260899;28;20068;-90
2023/05/06 03:28:57;;;;;;;8.25;6.35;;;;;;;9.82;100.00;100715.41;6261476;28;20045;-91
2023/05/06 03:32:06;;;;;;;9.18;5.95;;;;;;;9.78;100.00;100718.34;6263541;28;20155;-91
2023/05/06 03:35:14;;;;;;;8.15;5.72;;;;;;;9.79;100.00;100718.22;6261619;28;20175;-91
2023/05/06 03:38:20;;;;;;;8.60;6.15;;;;;;;9.78;100.00;100716.56;6261175;28;20044;-91
2023/05/06 03:41:28;;;;;;;8.10;6.13;;;;;;;9.75;100.00;100721.16;6261327;28;20052;-90
2023/05/06 03:44:30;;;;;;;8.20;6.07;;;;;;;9.76;100.00;100726.19;6262489;28;20533;-90
2023/05/06 03:47:34;;;;;;;8.35;6.45;;;;;;;9.76;100.00;100733.13;6261125;28;20678;-91
2023/05/06 03:50:37;;;;;;;8.25;5.95;;;;;;;9.70;100.00;100737.81;6261625;28;20533;-91
2023/05/06 03:53:39;;;;;;;8.93;6.78;;;;;;;9.69;100.00;100748.28;6244202;28;20056;-90
2023/05/06 03:56:41;;;;;;;9.00;6.05;;;;;;;9.75;100.00;100749.59;6260651;28;20118;-91
2023/05/06 03:59:43;;;;;;;9.85;6.90;;;;;;;9.88;100.00;100751.16;6260722;28;20037;-90
2023/05/06 04:02:45;;;;;;;9.45;6.85;;;;;;;10.07;100.00;100755.81;6242724;28;20045;-91
2023/05/06 04:05:55;;;;;;;10.27;6.88;;;;;;;10.25;100.00;100747.66;6260047;28;20090;-90
2023/05/06 04:08:59;;;;;;;11.05;7.10;;;;;;;10.38;100.00;100756.16;6260250;28;20045;-90
2023/05/06 04:12:02;;;;;;;11.77;7.47;;;;;;;10.46;100.00;100748.69;6260136;28;20094;-90
2023/05/06 04:15:06;;;;;;;11.27;7.00;;;;;;;10.50;100.00;100757.84;6255157;28;20673;-91
2023/05/06 04:18:08;;;;;;;13.40;8.50;;;;;;;10.57;100.00;100755.63;6260089;28;20052;-90
2023/05/06 04:21:14;;;;;;;10.20;7.72;;;;;;;10.70;100.00;100752.94;6236340;28;20049;-90
2023/05/06 04:24:21;;;;;;;13.40;8.18;;;;;;;10.70;100.00;100752.94;6261690;28;20044;-90
2023/05/06 04:27:26;;;;;;;11.68;8.07;;;;;;;10.73;100.00;100750.94;6259335;28;20043;-90
2023/05/06 04:30:29;;;;;;;10.77;8.10;;;;;;;10.74;100.00;100749.19;6260143;28;20045;-90
2023/05/06 04:33:31;;;;;;;15.25;8.63;;;;;;;10.80;100.00;100740.94;6259879;28;20048;-90
2023/05/06 04:36:36;;;;;;;14.65;8.75;;;;;;;10.81;100.00;100739.16;6261790;28;20049;-90
2023/05/06 04:40:00;;;;;;;13.15;8.77;;;;;;;10.80;100.00;100751.28;6258761;28;20129;-90
2023/05/06 04:43:05;;;;;;;14.18;9.85;;;;;;;10.80;100.00;100746.13;6243666;28;20064;-89
2023/05/06 04:46:07;;;;;;;14.75;9.07;;;;;;;10.86;100.00;100755.19;6260378;28;20537;-89
2023/05/06 04:49:11;;;;;;;14.73;9.48;;;;;;;10.87;100.00;100755.06;6259666;28;20437;-90
2023/05/06 04:52:14;;;;;;;14.75;9.43;;;;;;;10.83;100.00;100761.44;6257694;28;20069;-90
2023/05/06 04:55:16;;;;;;;13.35;9.23;;;;;;;10.83;100.00;100763.19;6243048;28;20045;-89
2023/05/06 04:58:22;;;;;;;15.00;9.93;;;;;;;10.82;100.00;100766.72;6260218;28;20101;-89
2023/05/06 05:01:25;;;;;;;17.15;9.63;;;;;;;10.80;100.00;100766.81;6260853;28;20044;-89
2023/05/06 05:04:27;;;;;;;15.30;9.90;;;;;;;10.84;100.00;100755.31;6259656;28;20098;-89
2023/05/06 05:07:28;;;;;;;16.30;10.63;;;;;;;10.88;100.00;100758.47;6259705;28;20045;-89
2023/05/06 05:10:30;;;;;;;15.43;10.20;;;;;;;10.95;100.00;100760.47;6242088;28;20055;-89
2023/05/06 05:13:33;;;;;;;15.88;10.07;;;;;;;10.98;100.00;100755.06;6259968;28;20045;-89
2023/05/06 05:16:37;;;;;;;16.20;10.18;;;;;;;11.07;100.00;100752.72;6258479;28;20041;-89
2023/05/06 05:19:39;;;;;;;15.40;10.60;;;;;;;11.26;100.00;100760.72;6243037;28;20183;-88
2023/05/06 05:22:43;;;;;;;17.00;10.50;;;;;;;11.25;100.00;100756.44;6251852;28;20049;-88
2023/05/06 05:25:45;;;;;;;20.13;11.18;;;;;;;11.08;100.00;100762.13;6258905;28;20122;-88
2023/05/06 05:28:47;;;;;;;15.43;10.73;;;;;;;10.94;100.00;100764.00;6259745;28;20052;-89
2023/05/06 05:31:49;;;;;;;19.73;10.70;;;;;;;10.89;100.00;100766.13;6258956;28;20059;-88
2023/05/06 05:34:51;;;;;;;17.15;11.45;;;;;;;10.83;100.00;100766.63;6258757;28;20057;-88
2023/05/06 05:37:53;;;;;;;17.23;10.85;;;;;;;10.87;100.00;100773.19;6260801;28;20037;-87
2023/05/06 05:40:56;;;;;;;21.17;12.80;;;;;;;10.80;100.00;100784.13;6265263;28;20045;-88
2023/05/06 05:43:59;;;;;;;19.70;12.93;;;;;;;10.85;100.00;100782.84;6262091;28;20171;-88
2023/05/06 05:47:01;;;;;;;19.33;13.25;;;;;;;10.99;100.00;100781.81;6261747;28;20497;-88
2023/05/06 05:50:05;;;;;;;19.17;12.38;;;;;;;11.16;100.00;100783.09;6263254;28;20053;-88
2023/05/06 05:53:07;;;;;;;16.17;11.23;;;;;;;11.12;100.00;100774.72;6263834;28;20049;-88
2023/05/06 05:56:11;;;;;;;22.20;13.13;;;;;;;11.13;100.00;100783.31;6262925;28;20048;-88
2023/05/06 05:59:13;;;;;;;17.42;12.15;;;;;;;11.34;100.00;100783.44;6246268;28;20045;-88
2023/05/06 06:02:16;;;;;;;18.80;12.35;;;;;;;11.70;100.00;100787.50;6264956;28;20045;-87
2023/05/06 06:05:18;;;;;;;18.35;12.13;;;;;;;11.87;100.00;100774.97;6263820;28;20036;-88
2023/05/06 06:08:20;;;;;;;19.75;12.43;;;;;;;12.08;100.00;100778.44;6262513;28;20041;-88
2023/05/06 06:11:27;;;;;;;18.92;12.38;;;;;;;12.15;100.00;100773.53;6262335;28;20135;-88
2023/05/06 06:14:29;;;;;;;16.80;11.50;;;;;;;12.07;100.00;100771.56;6251811;28;20056;-88
2023/05/06 06:17:31;;;;;;;16.27;11.18;;;;;;;11.91;100.00;100779.78;6261880;28;20497;-88
2023/05/06 06:20:34;;;;;;;17.73;12.13;;;;;;;11.87;100.00;100788.75;6265383;28;20050;-88
2023/05/06 06:23:36;;;;;;;19.30;11.80;;;;;;;11.93;100.00;100790.88;6262922;28;20041;-88
2023/05/06 06:26:39;;;;;;;16.80;11.07;;;;;;;12.09;100.00;100789.63;6262237;28;20045;-88
2023/05/06 06:29:41;;;;;;;17.98;11.70;;;;;;;12.10;100.00;100779.13;6252293;28;20165;-88
2023/05/06 06:32:48;;;;;;;18.27;11.77;;;;;;;12.02;100.00;100784.94;6262864;28;20072;-88
2023/05/06 06:35:50;;;;;;;16.83;10.52;;;;;;;12.13;100.00;100786.66;6250001;28;20049;-88
2023/05/06 06:38:51;;;;;;;16.10;10.80;;;;;;;12.41;100.00;100794.78;6263886;28;20048;-88
2023/05/06 06:41:57;;;;;;;16.70;10.60;;;;;;;12.82;100.00;100804.34;6257671;28;20510;-88
2023/05/06 06:44:58;;;;;;;15.77;10.73;;;;;;;13.03;100.00;100795.66;6257280;28;20076;-87
2023/05/06 06:48:00;;;;;;;15.77;10.07;;;;;;;13.22;100.00;100800.13;6263959;28;20037;-88
2023/05/06 06:51:02;;;;;;;15.32;10.27;;;;;;;13.26;100.00;100789.31;6263871;28;20509;-88
2023/05/06 06:54:04;;;;;;;16.20;11.15;;;;;;;13.49;100.00;100802.97;6263524;28;20053;-88
2023/05/06 06:57:06;;;;;;;15.93;11.00;;;;;;;13.65;100.00;100805.06;6262844;28;20099;-87
2023/05/06 07:00:09;;;;;;;15.60;11.25;;;;;;;13.51;100.00;100811.44;6263220;28;20152;-88
2023/05/06 07:03:14;;;;;;;16.52;11.25;;;;;;;13.25;100.00;100805.06;6256602;28;20058;-89
2023/05/06 07:06:16;;;;;;;18.65;11.98;;;;;;;13.19;100.00;100811.63;6262151;28;20132;-89
2023/05/06 07:09:17;;;;;;;15.60;11.70;;;;;;;13.56;100.00;100801.50;6254402;28;20037;-88
2023/05/06 07:12:19;;;;;;;17.98;12.13;;;;;;;13.93;100.00;100810.41;6260482;28;20045;-88
2023/05/06 07:15:21;;;;;;;15.07;10.30;;;;;;;14.10;100.00;100809.75;6263022;28;20388;-89
2023/05/06 07:18:23;;;;;;;16.45;11.07;;;;;;;14.23;100.00;100801.66;6262998;28;20128;-88
2023/05/06 07:21:26;;;;;;;16.23;11.35;;;;;;;14.54;100.00;100822.38;6255411;28;20131;-88
2023/05/06 07:24:27;;;;;;;14.88;10.20;;;;;;;14.52;100.00;100826.84;6244111;28;20056;-88
2023/05/06 07:27:29;;;;;;;14.50;9.75;;;;;;;14.43;100.00;100821.53;6257603;28;20434;-88
2023/05/06 07:30:31;;;;;;;13.18;8.90;;;;;;;14.32;100.00;100829.47;6257563;28;20041;-89
2023/05/06 07:33:33;;;;;;;14.93;9.35;;;;;;;14.38;100.00;100828.94;6260524;28;20125;-88
2023/05/06 07:36:39;;;;;;;13.27;10.15;;;;;;;14.66;100.00;100823.84;6258984;28;20156;-88
2023/05/06 07:39:42;;;;;;;13.95;9.63;;;;;;;15.04;100.00;100835.94;6260998;28;20491;-88
2023/05/06 07:42:43;;;;;;;12.98;10.00;;;;;;;15.28;100.00;100830.22;6260117;28;20045;-87
2023/05/06 07:45:45;;;;;;;12.30;9.18;;;;;;;15.12;100.00;100843.06;6260188;28;20048;-88
2023/05/06 07:48:48;;;;;;;12.02;9.13;;;;;;;14.94;100.00;100837.75;6263534;28;20519;-88
2023/05/06 07:51:50;;;;;;;12.45;9.07;;;;;;;14.84;100.00;100836.97;6268523;28;20048;-88
2023/05/06 07:54:52;;;;;;;12.32;8.93;;;;;;;14.86;100.00;100837.66;6264562;28;20048;-88
2023/05/06 07:57:54;;;;;;;11.70;8.45;;;;;;;15.24;100.00;100836.69;6262148;28;20040;-88
2023/05/06 08:00:56;;;;;;;10.85;8.43;;;;;;;15.51;100.00;100842.88;6254751;28;20045;-88
2023/05/06 08:03:59;;;;;;;14.40;9.77;;;;;;;15.52;100.00;100847.13;6260823;28;20447;-88
2023/05/06 08:07:01;;;;;;;12.55;8.60;;;;;;;15.50;100.00;100849.91;6260536;28;20101;-88
2023/05/06 08:10:03;;;;;;;13.27;9.88;;;;;;;15.21;100.00;100852.63;6264478;28;20107;-88
2023/05/06 08:13:05;;;;;;;11.45;8.80;;;;;;;14.89;100.00;100858.22;6251952;28;20080;-89
2023/05/06 08:16:07;;;;;;;12.25;8.25;;;;;;;14.95;100.00;100859.44;6256042;28;20049;-90
2023/05/06 08:19:09;;;;;;;13.63;9.07;;;;;;;15.31;100.00;100859.59;6256662;28;20073;-88
2023/05/06 08:22:11;;;;;;;9.95;7.55;;;;;;;15.68;100.00;100862.16;6260772;28;20049;-90
2023/05/06 08:25:13;;;;;;;8.73;7.20;;;;;;;15.82;100.00;100869.50;6261467;28;20659;-89
2023/05/06 08:28:16;;;;;;;10.57;8.25;;;;;;;15.96;100.00;100862.97;6259653;28;20045;-90
2023/05/06 08:31:18;;;;;;;9.77;7.95;;;;;;;16.12;100.00;100876.22;6254135;28;20048;-90
2023/05/06 08:34:21;;;;;;;10.48;7.72;;;;;;;16.22;100.00;100873.50;6264999;28;20502;-90
2023/05/06 08:37:23;;;;;;;10.07;7.88;;;;;;;16.40;100.00;100870.91;6260405;28;20673;-90
2023/05/06 08:40:25;;;;;;;9.73;7.38;;;;;;;16.27;100.00;100865.22;6257897;28;20080;-90
2023/05/06 08:43:31;;;;;;;11.10;7.90;;;;;;;16.18;100.00;100866.94;6261634;28;20446;-89
2023/05/06 08:46:34;;;;;;;9.32;7.38;;;;;;;16.36;100.00;100870.34;6255317;28;20499;-89
2023/05/06 08:49:36;;;;;;;9.98;7.50;;;;;;;16.55;100.00;100874.59;6255648;28;20391;-90
2023/05/06 08:52:39;;;;;;;8.40;6.72;;;;;;;16.64;100.00;100874.66;6256113;28;20577;-89
2023/05/06 08:55:41;;;;;;;9.82;7.60;;;;;;;16.71;100.00;100881.75;6249804;28;20049;-89
2023/05/06 08:58:50;;;;;;;10.02;7.82;;;;;;;16.68;100.00;100876.00;6236968;28;20566;-88
2023/05/06 09:01:52;;;;;;;9.55;7.50;;;;;;;16.36;100.00;100880.81;6244691;28;20040;-89
2023/05/06 09:04:55;;;;;;;11.02;7.93;;;;;;;16.47;100.00;100885.00;6243949;28;20106;-89
2023/05/06 09:07:57;;;;;;;9.15;7.25;;;;;;;16.72;100.00;100882.56;6248605;28;20071;-89
2023/05/06 09:10:59;;;;;;;9.15;6.78;;;;;;;16.93;100.00;100883.06;6256183;28;20040;-89
2023/05/06 09:14:08;;;;;;;8.75;7.15;;;;;;;17.14;100.00;100881.88;6266110;28;20061;-90
2023/05/06 09:17:27;;;;;;;10.10;7.15;;;;;;;17.01;100.00;100887.53;6262725;28;20115;-90
2023/05/06 09:20:39;;;;;;;9.40;7.10;;;;;;;16.88;100.00;100889.75;6266643;28;20481;-90
2023/05/06 09:23:41;;;;;;;10.18;7.40;;;;;;;16.83;100.00;100884.97;6259810;28;20033;-90
2023/05/06 09:26:46;;;;;;;9.57;6.65;;;;;;;16.83;100.00;100887.59;6261014;28;20417;-90
2023/05/06 09:30:05;;;;;;;9.27;6.35;;;;;;;16.84;100.00;100883.16;6264580;28;20502;-90
2023/05/06 09:33:11;;;;;;;14.10;7.50;;;;;;;16.94;100.00;100882.13;6243458;28;20689;-89
2023/05/06 09:36:14;;;;;;;10.10;7.90;;;;;;;17.08;100.00;100888.56;6247590;28;20052;-90
2023/05/06 09:39:16;;;;;;;10.93;7.28;;;;;;;17.11;100.00;100888.25;6257475;28;20155;-90
2023/05/06 09:42:20;;;;;;;10.02;7.82;;;;;;;17.24;100.00;100893.03;6250198;28;20471;-90
2023/05/06 09:45:23;;;;;;;11.35;7.95;;;;;;;17.46;100.00;100888.25;6254400;28;20037;-90
2023/05/06 09:48:31;;;;;;;12.70;8.38;;;;;;;17.54;100.00;100902.22;6255306;28;20033;-89
2023/05/06 09:51:33;;;;;;;13.18;7.97;;;;;;;17.52;100.00;100893.69;6262541;28;20676;-89
2023/05/06 09:54:35;;;;;;;12.57;7.60;;;;;;;17.70;100.00;100895.38;6268228;28;20041;-89
2023/05/06 09:57:39;;;;;;;11.25;8.10;;;;;;;17.90;100.00;100893.34;6258767;28;20051;-90
2023/05/06 10:00:42;;;;;;;10.68;7.90;;;;;;;17.69;100.00;100894.56;6255134;28;20088;-90
2023/05/06 10:03:45;;;;;;;13.63;8.15;;;;;;;17.36;100.00;100893.59;6264467;28;20040;-90
2023/05/06 10:06:48;;;;;;;9.70;7.85;;;;;;;17.37;100.00;100892.66;6256599;28;20061;-90
2023/05/06 10:09:53;;;;;;;8.77;7.55;;;;;;;17.55;100.00;100890.75;6258918;28;20040;-90
2023/05/06 10:12:55;;;;;;;10.70;8.15;;;;;;;17.73;100.00;100887.22;6255292;28;20065;-90
2023/05/06 10:16:01;;;;;;;9.70;7.57;;;;;;;17.86;100.00;100883.19;6268834;28;20048;-90
2023/05/06 10:19:06;;;;;;;9.18;7.47;;;;;;;18.01;100.00;100882.56;6254839;28;20045;-90
2023/05/06 10:22:29;;;;;;;11.65;8.18;;;;;;;18.35;100.00;100885.06;6261653;28;20045;-90
2023/05/06 10:25:42;;;;;;;10.45;7.63;;;;;;;18.82;100.00;100873.09;6185418;28;20713;-89
2023/05/06 10:28:48;;;;;;;9.75;7.45;;;;;;;19.15;100.00;100876.47;6170396;28;20571;-90
2023/05/06 10:31:56;;;;;;;9.38;7.53;;;;;;;19.14;100.00;100877.47;6185477;28;20043;-90
2023/05/06 10:35:08;;;;;;;10.45;7.75;;;;;;;19.21;100.00;100881.06;6185855;28;20046;-89
2023/05/06 10:38:36;;;;;;;9.25;7.85;;;;;;;19.06;100.00;100873.06;6186029;28;20181;-90
2023/05/06 10:41:39;;;;;;;10.70;7.00;;;;;;;18.71;100.00;100877.69;6096774;29;20055;-90
2023/05/06 10:45:02;;;;;;;9.75;6.88;;;;;;;18.76;100.00;100877.22;6109930;29;20040;-89
2023/05/06 10:48:10;;;;;;;9.30;8.05;;;;;;;18.92;100.00;100879.78;6094664;29;20170;-90
2023/05/06 10:51:18;;;;;;;8.45;6.88;;;;;;;18.77;100.00;100873.59;6113027;29;20054;-90
2023/05/06 10:54:22;;;;;;;9.77;7.60;;;;;;;18.49;100.00;100873.09;6107362;29;20204;-90
2023/05/06 10:57:26;;;;;;;11.18;8.55;;;;;;;18.21;100.00;100881.28;6114078;29;20143;-90
2023/05/06 11:00:33;;;;;;;10.00;7.80;;;;;;;18.01;100.00;100882.56;6113586;29;20056;-91
2023/05/06 11:03:35;;;;;;;10.70;7.63;;;;;;;17.77;100.00;100878.88;6167926;28;20094;-90
2023/05/06 11:06:53;;;;;;;11.10;8.48;;;;;;;17.65;100.00;100880.97;6179037;28;20606;-90
2023/05/06 11:10:06;;;;;;;10.30;7.20;;;;;;;17.98;100.00;100877.63;6181584;28;20493;-89
2023/05/06 11:13:27;;;;;;;7.13;5.75;;;;;;;18.73;100.00;100877.50;6171596;28;20054;-90
2023/05/06 11:16:49;;;;;;;8.35;6.22;;;;;;;18.74;100.00;100884.41;6148308;28;20073;-90
2023/05/06 11:20:31;;;;;;;8.55;6.30;;;;;;;18.60;100.00;100879.81;6239819;28;20421;-90
2023/05/06 11:23:49;;;;;;;9.20;6.45;;;;;;;19.02;100.00;100882.25;6245135;28;20075;-90
2023/05/06 11:26:51;;;;;;;9.52;7.15;;;;;;;19.10;100.00;100884.03;6266255;28;20056;-91
2023/05/06 11:29:54;;;;;;;9.52;6.80;;;;;;;19.11;100.00;100885.69;6259032;28;20063;-89
2023/05/06 11:33:02;;;;;;;11.13;8.50;;;;;;;18.91;100.00;100885.22;6258104;28;20041;-91
2023/05/06 11:36:13;;;;;;;12.88;8.70;;;;;;;18.52;100.00;100884.06;6266253;28;20503;-90
2023/05/06 11:39:14;;;;;;;13.80;8.30;;;;;;;18.29;100.00;100885.72;6258497;28;20052;-90
2023/05/06 11:42:24;;;;;;;10.55;7.25;;;;;;;18.23;100.00;100881.94;6257123;28;20393;-90
2023/05/06 11:45:38;;;;;;;11.73;7.82;;;;;;;18.17;100.00;100873.91;6259570;28;20499;-90
2023/05/06 11:48:42;;;;;;;10.00;7.25;;;;;;;18.61;100.00;100886.72;6255884;28;20202;-89
2023/05/06 11:51:47;;;;;;;10.63;7.65;;;;;;;18.72;100.00;100881.94;6227430;28;20087;-91
2023/05/06 11:54:52;;;;;;;8.23;7.32;;;;;;;19.25;100.00;100874.47;6275818;28;20388;-91
2023/05/06 11:57:54;;;;;;;8.40;6.75;;;;;;;19.89;100.00;100874.34;6263305;28;20068;-91
2023/05/06 12:00:59;;;;;;;9.93;7.93;;;;;;;19.84;100.00;100873.25;6254581;28;20061;-90
2023/05/06 12:04:04;;;;;;;10.80;7.38;;;;;;;19.28;100.00;100878.56;6261525;28;20048;-88
2023/05/06 12:07:08;;;;;;;9.40;7.25;;;;;;;19.42;100.00;100875.22;6257588;28;20053;-88
2023/05/06 12:10:10;;;;;;;8.73;6.78;;;;;;;19.85;100.00;100867.84;6248029;28;20453;-89
2023/05/06 12:13:14;;;;;;;8.90;6.75;;;;;;;20.30;100.00;100881.97;6257765;28;20037;-88
2023/05/06 12:16:17;;;;;;;10.20;6.78;;;;;;;19.82;100.00;100881.28;6261170;28;20152;-88
2023/05/06 12:19:20;;;;;;;8.52;6.57;;;;;;;19.68;100.00;100882.03;6258192;28;20305;-88
2023/05/06 12:22:25;;;;;;;11.07;8.40;;;;;;;20.13;100.00;100873.38;6247015;28;20040;-89
2023/05/06 12:25:27;;;;;;;10.98;6.85;;;;;;;20.54;100.00;100883.56;6255468;28;20033;-88
2023/05/06 12:28:31;;;;;;;9.38;7.70;;;;;;;20.64;100.00;100878.94;6255616;28;20060;-88
2023/05/06 12:31:33;;;;;;;10.57;7.85;;;;;;;20.19;100.00;100880.56;6248473;28;20044;-88
2023/05/06 12:34:42;;;;;;;9.85;7.30;;;;;;;19.93;100.00;100880.91;6250842;28;20045;-88
2023/05/06 12:37:44;;;;;;;11.50;7.97;;;;;;;20.20;100.00;100884.03;6252732;28;20040;-88
2023/05/06 12:40:55;;;;;;;14.05;9.30;;;;;;;20.51;100.00;100883.13;6244034;28;20060;-88
2023/05/06 12:43:57;;;;;;;13.48;9.32;;;;;;;20.58;100.00;100879.63;6260799;28;20494;-89
2023/05/06 12:47:00;;;;;;;13.65;9.85;;;;;;;20.21;100.00;100877.75;6237930;28;20053;-88
2023/05/06 12:50:02;;;;;;;13.32;8.93;;;;;;;20.04;100.00;100877.06;6235584;28;20038;-88
2023/05/06 12:53:06;;;;;;;15.32;9.20;;;;;;;20.20;100.00;100884.84;6239828;28;20115;-88
2023/05/06 12:56:08;;;;;;;14.88;8.40;;;;;;;20.41;100.00;100878.09;6241772;28;20050;-88
2023/05/06 12:59:12;;;;;;;13.02;8.30;;;;;;;20.56;100.00;100878.16;6252665;28;20522;-88
2023/05/06 13:02:14;;;;;;;11.68;7.78;;;;;;;20.80;100.00;100877.13;6256712;28;20435;-88
2023/05/06 13:05:17;;;;;;;12.93;8.82;;;;;;;20.94;100.00;100875.50;6253258;28;20049;-88
2023/05/06 13:08:18;;;;;;;12.88;7.95;;;;;;;20.82;100.00;100880.41;6241816;28;20052;-88
2023/05/06 13:11:21;;;;;;;10.30;7.55;;;;;;;20.70;100.00;100873.94;6257352;28;20040;-89
2023/05/06 13:14:23;;;;;;;10.93;7.53;;;;;;;20.54;100.00;100870.41;6253037;28;20508;-88
2023/05/06 13:17:26;;;;;;;9.18;7.55;;;;;;;20.44;100.00;100869.84;6260137;28;20131;-89
2023/05/06 13:20:31;;;;;;;10.65;7.75;;;;;;;20.34;100.00;100885.06;6257830;28;20210;-88
2023/05/06 13:23:35;;;;;;;12.05;7.82;;;;;;;20.46;100.00;100872.31;6258925;28;20522;-88
2023/05/06 13:26:37;;;;;;;10.88;7.22;;;;;;;20.80;100.00;100880.56;6257243;28;20119;-89
2023/05/06 13:29:39;;;;;;;8.68;6.28;;;;;;;20.99;100.00;100867.88;6255801;28;20525;-88
2023/05/06 13:32:41;;;;;;;6.97;5.82;;;;;;;21.17;100.00;100876.25;6251513;28;20052;-88
2023/05/06 13:35:43;;;;;;;10.43;6.82;;;;;;;21.22;100.00;100875.69;6255518;28;20504;-89
2023/05/06 13:38:50;;;;;;;9.65;6.30;;;;;;;21.39;100.00;100884.22;6253789;28;20049;-89
2023/05/06 13:41:53;;;;;;;12.93;5.93;;;;;;;21.63;100.00;100877.84;6253560;28;20434;-89
2023/05/06 13:44:55;;;;;;;8.95;6.70;;;;;;;21.56;100.00;100875.13;6261342;28;20040;-89
2023/05/06 13:47:57;;;;;;;9.50;6.07;;;;;;;21.52;100.00;100868.59;6258075;28;20348;-89
2023/05/06 13:50:59;;;;;;;9.48;6.35;;;;;;;21.37;100.00;100873.88;6250469;28;20134;-89
2023/05/06 13:54:03;;;;;;;8.60;6.10;;;;;;;21.30;100.00;100865.06;6257861;28;20578;-89
2023/05/06 13:57:05;;;;;;;10.30;7.25;;;;;;;21.42;100.00;100863.63;6255359;28;20053;-89